Time;durP1;ratioP1;P1;durP2;ratioP2;P2;SDS_P1;SDS_P2;PMS_P1;PMS_P2;Temp;Humidity;BMP_temperature;BMP_pressure;BME280_temperature;BME280_humidity;BME280_pressure;Samples;Min_cycle;Max_cycle;Signal;HPM_P1;HPM_P2
2022/06/03 00:02:43;;;;;;;25.67;2.22;;;;;;;22.63;55.83;99993.75;7307461;19;130445;-41
2022/06/03 00:05:21;;;;;;;15.43;1.70;;;;;;;22.48;53.15;100010.78;7313306;19;129865;-43
2022/06/03 00:08:09;;;;;;;27.05;2.38;;;;;;;22.24;50.54;100002.47;7312263;19;129103;-41
2022/06/03 00:10:34;;;;;;;;;;;;;;;22.44;54.49;100001.56;7310230;19;130072;-41
2022/06/03 00:13:37;;;;;;;32.90;2.80;;;;;;;22.51;55.68;100005.31;7312666;19;130302;-42
2022/06/03 00:16:34;;;;;;;21.05;2.03;;;;;;;22.60;54.64;100007.13;7312435;19;129757;-42
2022/06/03 00:19:26;;;;;;;32.33;2.97;;;;;;;22.65;54.64;99999.69;7311108;19;129670;-42
2022/06/03 00:22:28;;;;;;;39.20;3.38;;;;;;;22.68;55.41;100007.25;7313078;19;131026;-43
2022/06/03 00:24:59;;;;;;;24.48;2.15;;;;;;;22.66;53.32;100006.59;7309698;19;131186;-41
2022/06/03 00:28:01;;;;;;;83.30;6.40;;;;;;;22.68;54.79;99999.41;7309084;19;129259;-42
2022/06/03 00:31:01;;;;;;;17.17;1.73;;;;;;;22.69;55.10;100003.69;7308548;19;129192;-42
2022/06/03 00:33:40;;;;;;;29.00;2.45;;;;;;;22.68;55.01;100005.47;7305588;19;129515;-42
2022/06/03 00:36:09;;;;;;;26.63;2.28;;;;;;;22.66;54.10;100006.59;7310818;19;129253;-40
2022/06/03 00:38:54;;;;;;;31.27;2.72;;;;;;;22.69;55.06;100011.56;7308586;19;130360;-40
2022/06/03 00:41:45;;;;;;;17.85;1.95;;;;;;;22.61;54.66;99988.63;7310686;19;129357;-42
2022/06/03 00:44:44;;;;;;;27.65;2.50;;;;;;;22.70;55.31;100002.72;7312670;19;129840;-42
2022/06/03 00:47:33;;;;;;;51.08;3.88;;;;;;;22.64;54.91;99998.03;7310521;19;130899;-42
2022/06/03 00:50:14;;;;;;;14.02;1.48;;;;;;;22.67;55.20;100008.25;7310292;19;128799;-43
2022/06/03 00:52:42;;;;;;;42.63;3.63;;;;;;;22.69;54.49;100007.13;7311975;19;128938;-41
2022/06/03 00:55:42;;;;;;;22.33;2.10;;;;;;;22.70;55.93;100002.72;7309768;19;130034;-42
2022/06/03 00:58:07;;;;;;;29.98;2.63;;;;;;;22.34;51.63;100001.53;7310489;19;130412;-42
2022/06/03 01:00:42;;;;;;;27.52;2.67;;;;;;;22.24;50.39;100002.47;7310222;19;129304;-40
2022/06/03 01:03:19;;;;;;;25.02;2.00;;;;;;;22.45;54.12;100004.03;7310012;19;129093;-42
2022/06/03 01:05:51;;;;;;;;;;;;;;;22.54;54.76;99991.94;7310808;19;129346;-41
2022/06/03 01:08:43;;;;;;;22.55;2.33;;;;;;;22.58;55.15;100004.63;7310303;19;131216;-42
2022/06/03 01:11:27;;;;;;;37.70;3.33;;;;;;;22.63;55.48;99991.13;7308974;19;130391;-42
2022/06/03 01:14:11;;;;;;;24.63;2.15;;;;;;;22.65;53.99;99986.56;7307390;19;128929;-40
2022/06/03 01:16:42;;;;;;;25.02;2.28;;;;;;;22.65;54.48;99990.03;7308908;19;130374;-42
2022/06/03 01:19:35;;;;;;;45.92;3.83;;;;;;;22.67;54.96;99976.78;7306983;19;130274;-40
2022/06/03 01:22:15;;;;;;;17.60;1.90;;;;;;;22.68;54.94;99984.50;7310495;19;129672;-42
2022/06/03 01:25:02;;;;;;;26.25;2.33;;;;;;;22.67;55.59;99977.63;7314496;19;129421;-42
2022/06/03 01:28:03;;;;;;;50.10;4.35;;;;;;;22.73;55.16;99981.47;7314281;19;130196;-42
2022/06/03 01:30:56;;;;;;;33.08;2.63;;;;;;;22.70;55.55;99979.97;7308768;19;129286;-42
2022/06/03 01:34:03;;;;;;;25.38;2.17;;;;;;;22.72;53.99;99979.81;7316660;19;128839;-41
2022/06/03 01:36:59;;;;;;;36.25;2.83;;;;;;;22.72;56.15;99979.81;7312729;19;130162;-42
2022/06/03 01:39:45;;;;;;;34.95;3.03;;;;;;;22.72;55.37;99977.22;7314280;19;131336;-41
2022/06/03 01:42:16;;;;;;;36.78;3.25;;;;;;;22.71;55.10;99970.31;7313825;19;130405;-42
2022/06/03 01:45:00;;;;;;;21.92;1.83;;;;;;;22.70;53.59;99968.66;7315278;19;129290;-41
2022/06/03 01:47:25;;;;;;;29.83;2.88;;;;;;;22.70;53.44;99971.28;7314798;19;129049;-43
2022/06/03 01:50:20;;;;;;;27.58;2.38;;;;;;;22.62;53.32;99973.75;7312283;19;130278;-41
2022/06/03 01:53:59;;;;;;;33.88;2.80;;;;;;;22.27;50.90;99973.38;7314684;19;129761;-42
2022/06/03 01:56:36;;;;;;;24.42;2.28;;;;;;;22.48;54.04;99972.31;7312811;19;128968;-41
2022/06/03 01:59:29;;;;;;;25.55;2.33;;;;;;;22.57;55.18;99970.72;7310233;19;129860;-42
2022/06/03 02:01:57;;;;;;;34.38;2.60;;;;;;;22.60;53.74;99973.88;7314963;19;130144;-42
2022/06/03 02:04:46;;;;;;;29.00;2.22;;;;;;;22.66;54.40;99967.28;7315044;19;131067;-41
2022/06/03 02:07:42;;;;;;;40.78;3.38;;;;;;;22.68;55.10;99960.09;7314742;19;131200;-42
2022/06/03 02:10:39;;;;;;;32.05;2.55;;;;;;;22.71;54.88;99965.09;7310789;19;130648;-43
2022/06/03 02:13:31;;;;;;;26.63;2.35;;;;;;;22.72;55.68;99958.88;7314545;19;129691;-41
2022/06/03 02:16:15;;;;;;;28.40;2.28;;;;;;;22.69;54.50;99956.53;7315173;19;129639;-40
2022/06/03 02:19:18;;;;;;;26.80;2.20;;;;;;;22.71;55.66;99954.59;7313314;19;128912;-43
2022/06/03 02:22:04;;;;;;;24.67;1.95;;;;;;;22.68;54.68;99944.38;7313168;19;129110;-40
2022/06/03 02:24:47;;;;;;;33.72;2.78;;;;;;;22.68;55.46;99947.81;7316754;19;130085;-42
2022/06/03 02:27:32;;;;;;;56.78;4.47;;;;;;;22.74;55.37;99951.69;7313981;19;129467;-39
2022/06/03 02:30:24;;;;;;;28.52;2.40;;;;;;;22.71;55.92;99951.97;7308745;19;129769;-43
2022/06/03 02:33:14;;;;;;;36.85;2.65;;;;;;;22.62;55.97;99931.81;7316522;19;129028;-42
2022/06/03 02:35:58;;;;;;;38.20;3.10;;;;;;;22.70;54.33;99955.53;7309980;19;130176;-41
2022/06/03 02:38:43;;;;;;;28.35;2.22;;;;;;;22.70;56.17;99951.13;7315106;19;130920;-41
2022/06/03 02:41:46;;;;;;;20.52;1.65;;;;;;;22.71;55.43;99951.97;7313541;19;128881;-42
2022/06/03 02:44:18;;;;;;;25.52;2.15;;;;;;;22.28;51.24;99959.34;7315892;19;129760;-42
2022/06/03 02:47:18;;;;;;;11.88;1.17;;;;;;;22.41;53.93;99959.91;7311598;19;130149;-42
2022/06/03 02:50:02;;;;;;;28.90;2.45;;;;;;;22.52;53.67;99952.75;7315894;19;130364;-42
2022/06/03 02:52:51;;;;;;;41.47;3.50;;;;;;;22.55;54.70;99951.66;7315249;19;129824;-43
2022/06/03 02:55:46;;;;;;;24.77;2.17;;;;;;;22.68;54.80;99954.84;7315846;19;129809;-41
2022/06/03 02:58:11;;;;;;;30.35;2.28;;;;;;;22.64;53.34;99950.88;7312147;19;130610;-42
2022/06/03 03:00:49;;;;;;;39.33;3.22;;;;;;;22.69;54.82;99952.09;7312387;19;130278;-42
2022/06/03 03:03:28;;;;;;;46.50;3.40;;;;;;;22.70;54.59;99955.53;7310093;19;130526;-40
2022/06/03 03:06:22;;;;;;;41.17;3.40;;;;;;;22.72;55.23;99943.13;7312977;19;129317;-41
2022/06/03 03:09:24;;;;;;;75.60;5.78;;;;;;;22.74;55.37;99951.69;7311907;19;130217;-41
2022/06/03 03:11:58;;;;;;;31.88;2.70;;;;;;;22.71;55.42;99950.16;7315827;19;130679;-42
2022/06/03 03:14:30;;;;;;;40.88;3.13;;;;;;;22.72;55.14;99953.63;7312359;19;129145;-42
2022/06/03 03:16:58;;;;;;;23.55;1.98;;;;;;;22.68;53.92;99942.56;7311845;19;130665;-41
2022/06/03 03:19:43;;;;;;;29.40;2.33;;;;;;;22.71;55.52;99952.78;7313522;19;129023;-43
2022/06/03 03:22:15;;;;;;;10.13;1.15;;;;;;;22.72;55.03;99954.44;7313953;19;129229;-41
2022/06/03 03:25:02;;;;;;;29.52;2.53;;;;;;;22.63;54.98;99946.56;7311959;19;129175;-42
2022/06/03 03:27:49;;;;;;;44.33;3.63;;;;;;;22.69;54.49;99959.16;7311745;19;128917;-40
2022/06/03 03:30:28;;;;;;;38.85;3.05;;;;;;;22.62;55.71;99952.78;7311084;19;132382;-39
2022/06/03 03:33:22;;;;;;;26.27;2.22;;;;;;;22.72;55.66;99958.88;7295073;19;131368;-41
2022/06/03 03:36:26;;;;;;;47.42;4.10;;;;;;;22.30;51.09;99973.09;7310776;19;129155;-41
2022/06/03 03:38:54;;;;;;;10.75;1.20;;;;;;;22.28;51.56;99972.44;7311372;19;130992;-41
2022/06/03 03:41:28;;;;;;;35.83;2.58;;;;;;;22.50;53.78;99975.63;7311222;19;129761;-41
2022/06/03 03:44:24;;;;;;;31.35;2.55;;;;;;;22.59;54.74;99963.56;7312107;19;129984;-42
2022/06/03 03:47:37;;;;;;;21.88;1.88;;;;;;;22.67;55.20;99963.69;7312034;19;129297;-42
2022/06/03 03:50:39;;;;;;;27.58;2.22;;;;;;;22.70;54.74;99972.09;7312801;19;129520;-41
2022/06/03 03:53:29;;;;;;;29.55;2.22;;;;;;;22.71;54.80;99967.69;7311429;19;130611;-41
2022/06/03 03:56:13;;;;;;;47.75;3.88;;;;;;;22.66;54.09;99960.22;7314632;19;130513;-41
2022/06/03 03:59:13;;;;;;;39.42;3.22;;;;;;;22.69;55.13;99961.75;7310074;19;129514;-43
2022/06/03 04:02:09;;;;;;;66.13;5.20;;;;;;;22.70;55.39;99966.03;7305733;19;129503;-41
2022/06/03 04:04:53;;;;;;;67.53;5.55;;;;;;;22.73;54.70;99976.22;7311146;19;129032;-41
2022/06/03 04:07:30;;;;;;;31.65;2.28;;;;;;;22.72;54.76;99974.59;7307540;19;130958;-40
2022/06/03 04:10:15;;;;;;;;;;;;;;;22.77;55.62;99978.47;7311692;19;130841;-42
2022/06/03 04:13:14;;;;;;;28.80;2.35;;;;;;;22.74;55.79;99988.38;7312909;19;129495;-41
2022/06/03 04:16:16;;;;;;;53.65;4.50;;;;;;;22.74;55.52;99988.38;7310737;19;129786;-40
2022/06/03 04:19:19;;;;;;;34.17;2.72;;;;;;;22.75;55.37;99988.25;7311117;19;131512;-38
2022/06/03 04:22:34;;;;;;;19.23;1.85;;;;;;;22.73;55.87;99991.97;7307927;19;131472;-40
2022/06/03 04:25:19;;;;;;;26.40;2.38;;;;;;;22.76;55.68;99991.69;7313103;19;128979;-41
2022/06/03 04:28:15;;;;;;;38.97;2.83;;;;;;;22.29;51.10;99989.81;7308043;19;130629;-42
2022/06/03 04:31:06;;;;;;;31.73;2.70;;;;;;;22.21;52.97;99974.78;7308041;19;131287;-42
2022/06/03 04:33:54;;;;;;;48.50;3.67;;;;;;;22.50;54.84;99980.88;7311401;19;129284;-41
2022/06/03 04:36:32;;;;;;;42.33;3.67;;;;;;;22.53;54.62;99966.69;7307918;19;130075;-41
2022/06/03 04:39:34;;;;;;;45.58;3.60;;;;;;;22.66;55.25;99968.09;7306422;19;130246;-38
2022/06/03 04:42:37;;;;;;;28.70;2.38;;;;;;;22.68;55.48;99968.78;7313427;19;129671;-40
2022/06/03 04:45:44;;;;;;;52.00;3.97;;;;;;;22.70;54.60;99973.88;7305302;19;129076;-40
2022/06/03 04:48:31;;;;;;;29.42;2.40;;;;;;;22.74;55.21;99972.66;7309586;19;129449;-42
2022/06/03 04:51:30;;;;;;;31.27;2.50;;;;;;;22.74;54.99;99972.66;7301754;19;129708;-40
2022/06/03 04:54:30;;;;;;;30.40;2.60;;;;;;;22.74;54.78;99975.28;7309442;19;130457;-42
2022/06/03 04:57:13;;;;;;;29.10;2.53;;;;;;;22.73;53.12;99973.59;7307868;19;129518;-42
2022/06/03 04:59:39;;;;;;;36.08;3.13;;;;;;;22.71;53.06;99972.94;7300173;19;132034;-41
2022/06/03 05:02:04;;;;;;;33.92;2.88;;;;;;;22.63;53.08;99954.44;7306139;19;129844;-41
2022/06/03 05:04:42;;;;;;;42.97;3.60;;;;;;;22.74;54.05;99973.47;7308098;19;130221;-41
2022/06/03 05:07:19;;;;;;;71.97;5.68;;;;;;;22.74;54.11;99972.66;7306732;19;130262;-39
2022/06/03 05:10:02;;;;;;;30.83;2.72;;;;;;;22.72;53.75;99974.59;7307064;19;130037;-41
2022/06/03 05:13:01;;;;;;;42.13;3.42;;;;;;;22.74;55.61;99967.41;7304570;19;130968;-42
2022/06/03 05:15:50;;;;;;;21.23;2.08;;;;;;;22.73;55.28;99971.00;7308545;19;130903;-42
2022/06/03 05:18:19;;;;;;;47.00;3.50;;;;;;;22.72;54.32;99962.31;7304768;19;131165;-41
2022/06/03 05:21:02;;;;;;;28.98;2.40;;;;;;;22.35;51.19;99965.69;7303646;19;129149;-41
2022/06/03 05:23:43;;;;;;;35.72;2.95;;;;;;;22.27;50.50;99960.28;7309805;19;130523;-41
2022/06/03 05:26:40;;;;;;;76.55;6.13;;;;;;;22.51;54.47;99947.66;7304117;19;129737;-38
2022/06/03 05:29:27;;;;;;;41.58;3.13;;;;;;;22.55;54.11;99938.56;7309908;19;128937;-42
2022/06/03 05:32:26;;;;;;;18.73;1.55;;;;;;;22.67;55.12;99940.94;7309832;19;129089;-39
2022/06/03 05:34:53;;;;;;;24.45;2.13;;;;;;;22.59;52.96;99926.88;7311925;19;129905;-41
2022/06/03 05:37:34;;;;;;;21.55;2.05;;;;;;;22.72;54.59;99946.59;7307862;19;131411;-41
2022/06/03 05:40:26;;;;;;;20.10;2.22;;;;;;;22.70;53.17;99945.06;7308982;19;128838;-41
2022/06/03 05:43:12;;;;;;;22.17;2.03;;;;;;;22.70;55.72;99950.31;7311381;19;129700;-41
2022/06/03 05:46:02;;;;;;;37.50;3.10;;;;;;;22.72;54.67;99951.00;7309786;19;130541;-38
2022/06/03 05:48:46;;;;;;;41.97;3.58;;;;;;;22.74;53.45;99941.22;7311394;19;129105;-44
2022/06/03 05:51:33;;;;;;;14.00;1.60;;;;;;;22.73;55.07;99950.03;7307241;19;130767;-42
2022/06/03 05:54:12;;;;;;;61.83;4.97;;;;;;;22.75;53.96;99948.09;7308579;19;130632;-43
2022/06/03 05:57:07;;;;;;;35.15;3.10;;;;;;;22.74;55.36;99946.44;7308455;19;129980;-41
2022/06/03 05:59:55;;;;;;;30.42;2.50;;;;;;;22.76;54.84;99939.25;7307706;19;129691;-42
2022/06/03 06:02:31;;;;;;;24.38;2.33;;;;;;;22.76;54.15;99931.38;7308918;19;129168;-42
2022/06/03 06:05:27;;;;;;;37.47;3.20;;;;;;;22.62;55.34;99916.94;7306259;19;129732;-42
2022/06/03 06:08:13;;;;;;;41.35;3.53;;;;;;;22.73;54.55;99935.13;7304894;19;129801;-40
2022/06/03 06:10:57;;;;;;;45.70;3.67;;;;;;;22.66;55.58;99918.28;7307939;19;129319;-43
2022/06/03 06:13:48;;;;;;;24.17;2.25;;;;;;;22.56;52.77;99933.19;7316502;19;129046;-41
2022/06/03 06:16:18;;;;;;;38.33;2.97;;;;;;;22.17;50.54;99910.53;7316853;19;129439;-43
2022/06/03 06:18:55;;;;;;;30.55;2.47;;;;;;;22.32;53.63;99906.53;7314593;19;130404;-42
2022/06/03 06:21:29;;;;;;;32.25;2.80;;;;;;;22.40;54.34;99900.59;7315131;19;129115;-41
2022/06/03 06:24:17;;;;;;;19.45;1.90;;;;;;;22.58;53.84;99917.31;7316546;19;129262;-43
2022/06/03 06:27:05;;;;;;;24.88;2.17;;;;;;;22.65;54.52;99915.81;7309264;19;129598;-42
2022/06/03 06:30:02;;;;;;;29.15;2.47;;;;;;;22.60;54.59;99897.06;7315496;19;130169;-41
2022/06/03 06:32:30;;;;;;;47.53;3.95;;;;;;;22.61;53.65;99893.50;7315404;19;130247;-43
2022/06/03 06:35:44;;;;;;;21.85;2.05;;;;;;;22.70;54.99;99903.13;7314440;19;129202;-42
2022/06/03 06:38:12;;;;;;;39.85;3.55;;;;;;;22.72;53.54;99906.44;7311160;19;129800;-41
2022/06/03 06:40:47;;;;;;;43.58;3.45;;;;;;;22.68;54.57;99899.81;7309988;19;129850;-43
2022/06/03 06:43:34;;;;;;;26.33;2.20;;;;;;;22.69;54.76;99886.56;7313419;19;130309;-42
2022/06/03 06:46:15;;;;;;;24.27;2.15;;;;;;;22.71;54.09;99889.88;7316912;19;129025;-44
2022/06/03 06:48:55;;;;;;;35.20;2.97;;;;;;;22.70;54.66;99884.78;7314780;19;128859;-43
2022/06/03 06:51:39;;;;;;;74.60;5.85;;;;;;;22.68;53.05;99886.69;7309745;19;130376;-40
2022/06/03 06:54:16;;;;;;;28.23;2.55;;;;;;;22.69;53.93;99885.75;7313341;19;131023;-42
2022/06/03 06:56:46;;;;;;;32.15;2.65;;;;;;;22.68;53.26;99886.69;7315662;19;128826;-40
2022/06/03 06:59:26;;;;;;;35.20;2.72;;;;;;;22.66;55.09;99878.19;7314131;19;129453;-41
2022/06/03 07:02:12;;;;;;;24.17;2.30;;;;;;;22.69;54.53;99881.31;7315540;19;129176;-42
2022/06/03 07:04:44;;;;;;;29.23;2.67;;;;;;;22.67;54.32;99887.69;7315733;19;130404;-41
2022/06/03 07:07:10;;;;;;;21.08;2.08;;;;;;;22.39;51.89;99878.84;7315135;19;128746;-41
2022/06/03 07:09:53;;;;;;;40.10;3.33;;;;;;;22.20;50.02;99884.06;7315735;19;129083;-41
2022/06/03 07:12:23;;;;;;;21.13;1.95;;;;;;;22.41;52.11;99870.84;7316529;19;129913;-41
2022/06/03 07:15:00;;;;;;;24.75;2.25;;;;;;;22.42;54.74;99867.25;7316387;19;130472;-42
2022/06/03 07:21:16;;;;;;;26.67;2.20;;;;;;;22.57;55.17;99850.16;7314174;19;129914;-41
2022/06/03 07:23:49;;;;;;;24.20;2.17;;;;;;;22.65;54.62;99850.28;7314382;19;129323;-43
2022/06/03 07:26:37;;;;;;;24.10;2.05;;;;;;;22.67;54.21;99867.56;7314736;19;129482;-41
2022/06/03 07:29:23;;;;;;;19.50;1.85;;;;;;;22.69;54.94;99854.31;7315769;19;129251;-42
2022/06/03 07:32:20;;;;;;;21.48;2.15;;;;;;;22.70;54.91;99851.53;7314943;19;129302;-41
2022/06/03 07:34:52;;;;;;;18.17;1.75;;;;;;;22.68;54.71;99850.00;7313880;19;130141;-42
2022/06/03 07:37:45;;;;;;;26.15;2.42;;;;;;;22.67;55.04;99851.81;7315169;19;130913;-42
2022/06/03 07:40:34;;;;;;;28.88;2.65;;;;;;;22.72;55.26;99846.16;7312938;19;129452;-41
2022/06/03 07:43:21;;;;;;;24.85;2.45;;;;;;;22.71;55.16;99847.13;7313106;19;128998;-42
2022/06/03 07:45:56;;;;;;;49.60;4.03;;;;;;;22.66;55.46;99842.28;7313368;19;130161;-41
2022/06/03 07:48:24;;;;;;;31.10;2.75;;;;;;;22.65;53.67;99843.28;7314603;19;130054;-42
2022/06/03 07:50:59;;;;;;;20.33;1.70;;;;;;;22.65;54.79;99838.03;7311707;19;129830;-42
2022/06/03 07:53:33;;;;;;;35.08;3.03;;;;;;;22.65;54.20;99835.41;7312981;19;129029;-42
2022/06/03 07:55:59;;;;;;;11.52;1.30;;;;;;;22.65;53.61;99838.03;7314234;19;129138;-42
2022/06/03 07:58:29;;;;;;;29.52;2.55;;;;;;;22.56;54.27;99817.09;7313559;19;130670;-43
2022/06/03 08:00:54;;;;;;;20.27;1.92;;;;;;;22.57;53.52;99830.03;7312556;19;129247;-43
2022/06/03 08:03:21;;;;;;;28.88;2.65;;;;;;;22.12;50.51;99809.75;7313307;19;129081;-41
2022/06/03 08:05:59;;;;;;;46.35;4.03;;;;;;;22.17;52.90;99802.31;7314237;19;130194;-41
2022/06/03 08:11:24;;;;;;;25.20;2.20;;;;;;;22.53;54.65;99814.72;7312656;19;129527;-41
2022/06/03 08:13:56;;;;;;;22.48;2.08;;;;;;;22.56;54.20;99814.47;7313968;19;129187;-40
2022/06/03 08:16:25;;;;;;;24.98;2.10;;;;;;;22.60;52.70;99811.41;7312172;19;130358;-40
2022/06/03 08:18:55;;;;;;;40.63;3.30;;;;;;;22.65;53.69;99816.22;7312390;19;130365;-41
2022/06/03 08:21:43;;;;;;;26.88;2.35;;;;;;;22.67;53.79;99820.38;7310763;19;128786;-43
2022/06/03 08:24:15;;;;;;;23.70;2.20;;;;;;;22.65;54.30;99816.22;7314352;19;128960;-42
2022/06/03 08:26:44;;;;;;;16.17;1.88;;;;;;;22.62;54.21;99809.50;7312361;19;129404;-41
2022/06/03 08:29:44;;;;;;;24.92;2.30;;;;;;;22.66;54.55;99812.66;7314068;19;130394;-42
2022/06/03 08:32:48;;;;;;;20.05;2.22;;;;;;;22.65;55.03;99816.22;7312777;19;128925;-42
2022/06/03 08:35:19;;;;;;;23.88;2.15;;;;;;;22.62;54.19;99817.34;7314480;19;128863;-42
2022/06/03 08:37:51;;;;;;;23.90;2.15;;;;;;;22.65;53.82;99826.72;7312478;19;130179;-41
2022/06/03 08:40:34;;;;;;;18.73;1.67;;;;;;;22.62;55.10;99827.84;7311435;19;130327;-42
2022/06/03 08:43:29;;;;;;;23.58;2.22;;;;;;;22.65;55.33;99818.84;7312829;19;129900;-42
2022/06/03 08:46:04;;;;;;;33.67;2.70;;;;;;;22.65;53.54;99822.31;7311264;19;129090;-43
2022/06/03 08:48:38;;;;;;;31.73;2.63;;;;;;;22.65;54.85;99813.59;7312056;19;129529;-42
2022/06/03 08:51:10;;;;;;;27.05;2.40;;;;;;;22.66;53.85;99812.66;7311963;19;129107;-41
2022/06/03 08:53:41;;;;;;;34.05;2.95;;;;;;;;;;7312592;19;128677;-41
2022/06/03 08:56:29;;;;;;;22.95;2.08;;;;;;;22.21;50.58;99809.78;7312574;19;129018;-42
2022/06/03 08:58:56;;;;;;;4.93;0.77;;;;;;;22.11;50.66;99802.88;7313049;19;129252;-42
2022/06/03 09:01:27;;;;;;;22.90;1.83;;;;;;;22.44;52.99;99802.44;7310611;19;130417;-40
2022/06/03 09:04:20;;;;;;;23.92;2.17;;;;;;;22.52;54.50;99810.44;7311825;19;129590;-41
2022/06/03 09:07:03;;;;;;;20.17;1.77;;;;;;;22.57;54.88;99803.00;7312058;19;129604;-42
2022/06/03 09:09:32;;;;;;;28.95;2.50;;;;;;;22.59;54.24;99807.13;7312190;19;129044;-42
2022/06/03 09:12:05;;;;;;;19.58;1.90;;;;;;;22.61;54.39;99804.38;7311385;19;129110;-42
2022/06/03 09:14:32;;;;;;;21.88;2.20;;;;;;;22.60;53.48;99797.47;7310470;19;129024;-42
2022/06/03 09:17:26;;;;;;;32.38;2.55;;;;;;;22.63;54.74;99799.81;7312623;19;130059;-42
2022/06/03 09:19:56;;;;;;;20.67;1.70;;;;;;;22.62;53.29;99796.38;7309593;19;130220;-41
2022/06/03 09:22:28;;;;;;;31.65;2.60;;;;;;;22.58;54.06;99778.44;7312814;19;130325;-42
2022/06/03 09:24:57;;;;;;;24.67;2.15;;;;;;;22.64;54.44;99806.72;7310681;19;129357;-42
2022/06/03 09:27:26;;;;;;;32.33;2.67;;;;;;;22.65;55.36;99808.38;7311706;19;129406;-41
2022/06/03 09:29:54;;;;;;;26.15;2.22;;;;;;;22.54;54.25;99787.56;7311034;19;130056;-43
2022/06/03 09:32:22;;;;;;;19.83;1.85;;;;;;;22.63;53.64;99786.72;7312806;19;130323;-41
2022/06/03 09:34:51;;;;;;;21.60;1.80;;;;;;;22.53;54.17;99786.72;7312190;19;130211;-43
2022/06/03 09:37:47;;;;;;;30.83;2.78;;;;;;;22.65;55.61;99797.88;7311496;19;129796;-44
2022/06/03 09:40:21;;;;;;;23.75;2.08;;;;;;;22.62;54.70;99792.94;7308330;19;130748;-41
2022/06/03 09:43:17;;;;;;;21.40;1.80;;;;;;;22.63;55.62;99781.47;7311138;19;130338;-42
2022/06/03 09:45:46;;;;;;;49.75;4.20;;;;;;;22.61;53.96;99779.00;7312542;19;128810;-41
2022/06/03 09:48:15;;;;;;;26.25;2.30;;;;;;;22.42;53.06;99781.63;7318285;19;129080;-42
2022/06/03 09:50:46;;;;;;;18.08;1.85;;;;;;;22.17;50.87;99768.28;7316490;19;130087;-43
2022/06/03 09:53:12;;;;;;;29.25;2.47;;;;;;;22.24;51.66;99782.47;7316991;19;131623;-42
2022/06/03 09:55:41;;;;;;;39.47;3.43;;;;;;;22.43;53.29;99772.78;7318387;19;130258;-43
2022/06/03 09:58:12;;;;;;;29.00;2.50;;;;;;;22.54;53.40;99777.09;7316892;19;129074;-42
2022/06/03 10:00:45;;;;;;;25.25;2.10;;;;;;;22.57;54.44;99776.81;7316659;19;130960;-41
2022/06/03 10:03:11;;;;;;;27.95;2.67;;;;;;;22.60;53.49;99773.88;7315333;19;130318;-42
2022/06/03 10:05:37;;;;;;;35.37;2.87;;;;;;;22.63;53.43;99770.97;7317108;19;129095;-43
2022/06/03 10:08:07;;;;;;;24.37;2.00;;;;;;;22.62;52.72;99792.94;7317900;19;128887;-42
2022/06/03 10:13:17;;;;;;;35.42;2.78;;;;;;;22.64;52.56;99775.28;7316238;19;129449;-41
2022/06/03 10:16:00;;;;;;;37.03;3.30;;;;;;;22.62;54.25;99769.34;7315959;19;129686;-42
2022/06/03 10:18:36;;;;;;;26.73;2.20;;;;;;;22.61;53.67;99768.50;7317102;19;129149;-42
2022/06/03 10:21:05;;;;;;;32.08;2.78;;;;;;;22.54;54.06;99766.59;7314056;19;129005;-41
2022/06/03 10:23:35;;;;;;;27.05;2.50;;;;;;;22.62;53.34;99770.19;7316325;19;131388;-42
2022/06/03 10:26:01;;;;;;;27.75;2.28;;;;;;;22.61;54.41;99762.47;7316365;19;129008;-40
2022/06/03 10:28:35;;;;;;;46.78;3.55;;;;;;;22.60;54.92;99763.41;7315806;19;128961;-41
2022/06/03 10:31:07;;;;;;;30.70;2.78;;;;;;;22.63;53.97;99752.63;7314678;19;130332;-42
2022/06/03 10:33:34;;;;;;;35.45;2.92;;;;;;;22.63;53.45;99763.13;7315261;19;130545;-42
2022/06/03 10:36:01;;;;;;;24.55;2.17;;;;;;;22.63;54.83;99760.50;7317264;19;129200;-42
2022/06/03 10:38:31;;;;;;;24.88;2.20;;;;;;;22.58;53.48;99754.84;7316857;19;129010;-42
2022/06/03 10:41:02;;;;;;;13.35;1.30;;;;;;;22.61;53.94;99751.97;7314698;19;129558;-43
2022/06/03 10:43:30;;;;;;;27.60;2.33;;;;;;;22.11;51.34;99738.25;7315853;19;129785;-42
2022/06/03 10:46:15;;;;;;;29.55;2.63;;;;;;;22.17;50.13;99750.78;7315538;19;129538;-39
2022/06/03 10:48:42;;;;;;;24.25;2.10;;;;;;;22.34;53.07;99736.13;7317352;19;129390;-41
2022/06/03 10:51:19;;;;;;;22.85;2.03;;;;;;;22.46;54.31;99742.88;7314176;19;129233;-41
2022/06/03 11:02:36;;;;;;;8.93;1.08;;;;;;;22.63;53.65;99718.56;7316110;19;130003;-45
2022/06/03 11:05:23;;;;;;;23.67;2.15;;;;;;;22.61;54.93;99723.16;7316928;19;129289;-42
2022/06/03 11:08:03;;;;;;;24.17;2.00;;;;;;;22.59;54.53;99712.78;7315437;19;128929;-43
2022/06/03 11:10:47;;;;;;;33.63;2.78;;;;;;;22.60;54.41;99709.22;7313776;19;129782;-42
2022/06/03 11:13:24;;;;;;;29.38;2.60;;;;;;;22.61;53.86;99710.06;7314984;19;130793;-42
2022/06/03 11:15:49;;;;;;;35.95;3.03;;;;;;;22.61;53.43;99702.19;7315130;19;130373;-42
2022/06/03 11:18:19;;;;;;;19.95;1.95;;;;;;;22.60;54.98;99703.97;7315364;19;129409;-42
2022/06/03 11:20:50;;;;;;;26.83;2.20;;;;;;;22.57;54.43;99698.19;7313925;19;129908;-41
2022/06/03 11:23:16;;;;;;;21.98;1.80;;;;;;;22.63;53.55;99694.97;7315443;19;130145;-42
2022/06/03 11:25:49;;;;;;;50.03;4.13;;;;;;;22.62;53.41;99686.31;7315440;19;130510;-42
2022/06/03 11:28:29;;;;;;;8.85;1.13;;;;;;;22.59;55.01;99683.16;7314645;19;130797;-41
2022/06/03 11:30:59;;;;;;;24.52;1.95;;;;;;;22.59;54.48;99681.34;7313104;19;130047;-42
2022/06/03 11:33:43;;;;;;;30.25;2.70;;;;;;;22.62;54.48;99682.88;7309893;19;130264;-41
2022/06/03 11:36:27;;;;;;;14.50;1.63;;;;;;;22.30;51.48;99669.28;7313797;19;129690;-40
2022/06/03 11:39:00;;;;;;;16.70;1.83;;;;;;;22.15;50.31;99670.72;7314280;19;129152;-42
2022/06/03 11:41:42;;;;;;;41.78;3.30;;;;;;;22.34;54.46;99665.41;7309424;19;129012;-41
2022/06/03 11:44:32;;;;;;;24.90;2.03;;;;;;;22.36;54.64;99647.78;7313357;19;130513;-42
2022/06/03 11:47:20;;;;;;;32.40;2.92;;;;;;;22.51;53.90;99634.03;7309498;19;130158;-42
2022/06/03 11:49:46;;;;;;;18.65;1.67;;;;;;;22.57;52.97;99630.06;7313212;19;128973;-41
2022/06/03 11:52:13;;;;;;;21.73;1.93;;;;;;;22.58;53.46;99624.66;7312556;19;129094;-42
2022/06/03 11:54:39;;;;;;;26.60;2.23;;;;;;;22.60;53.21;99630.59;7314324;19;129213;-40
2022/06/03 11:57:07;;;;;;;25.77;1.98;;;;;;;22.62;53.31;99633.06;7313466;19;129201;-41
2022/06/03 11:59:44;;;;;;;49.78;4.00;;;;;;;22.63;53.70;99634.72;7310584;19;129289;-42
2022/06/03 12:02:18;;;;;;;;;;;;;;;22.67;55.67;99630.84;7315611;19;128897;-41
2022/06/03 12:04:59;;;;;;;9.55;1.02;;;;;;;22.60;54.51;99624.53;7312011;19;130227;-41
2022/06/03 12:07:40;;;;;;;33.05;2.90;;;;;;;22.60;53.99;99624.53;7313106;19;129722;-41
2022/06/03 12:10:10;;;;;;;22.48;2.00;;;;;;;22.49;53.97;99601.13;7311898;19;129022;-42
2022/06/03 12:15:30;;;;;;;32.55;2.55;;;;;;;22.61;54.38;99592.13;7311171;19;129264;-41
2022/06/03 12:18:16;;;;;;;24.90;2.22;;;;;;;;;;7313199;19;130324;-43
2022/06/03 12:20:47;;;;;;;29.35;2.40;;;;;;;22.52;53.88;99609.50;7309463;19;129077;-42
2022/06/03 12:23:12;;;;;;;19.35;1.63;;;;;;;22.50;53.71;99602.75;7313697;19;129112;-41
2022/06/03 12:25:45;;;;;;;47.05;3.88;;;;;;;22.60;54.02;99608.81;7310954;19;130601;-40
2022/06/03 12:28:51;;;;;;;33.88;2.78;;;;;;;22.50;52.88;99592.28;7313195;19;129717;-41
2022/06/03 12:31:19;;;;;;;43.22;3.33;;;;;;;22.17;51.14;99582.34;7305728;19;129396;-40
2022/06/03 12:34:06;;;;;;;19.17;1.75;;;;;;;22.37;53.91;99586.53;7312467;19;128965;-41
2022/06/03 12:36:50;;;;;;;42.42;3.53;;;;;;;22.42;54.76;99574.69;7312060;19;130436;-42
2022/06/03 12:39:25;;;;;;;29.20;2.53;;;;;;;22.50;55.18;99572.16;7312539;19;130221;-41
2022/06/03 12:41:50;;;;;;;21.30;2.00;;;;;;;22.56;53.14;99576.03;7308153;19;129653;-41
2022/06/03 12:44:37;;;;;;;28.50;2.22;;;;;;;22.59;54.63;99570.47;7312164;19;130070;-41
2022/06/03 12:47:17;;;;;;;27.58;2.42;;;;;;;22.59;54.37;99570.47;7312231;19;129965;-42